createdAt,value
2024-01-25T00:03:57.481Z,15.75
2024-01-25T00:08:59.867Z,15.20
2024-01-25T00:14:02.450Z,10.40
2024-01-25T00:19:04.734Z,10.23
2024-01-25T00:24:07.080Z,9.77
2024-01-25T00:29:09.487Z,9.15
2024-01-25T00:34:12.230Z,8.32
2024-01-25T00:39:14.910Z,8.10
2024-01-25T00:44:17.445Z,9.07
2024-01-25T00:49:20.021Z,7.15
2024-01-25T00:54:22.679Z,7.43
2024-01-25T00:59:25.165Z,10.90
2024-01-25T01:04:28.084Z,10.02
2024-01-25T01:09:36.949Z,14.20
2024-01-25T01:14:39.089Z,18.95
2024-01-25T01:19:41.341Z,15.38
2024-01-25T01:24:43.708Z,16.17
2024-01-25T01:29:49.203Z,15.45
2024-01-25T01:34:51.499Z,13.15
2024-01-25T01:39:57.443Z,14.63
2024-01-25T01:44:59.633Z,13.63
2024-01-25T01:50:03.141Z,14.63
2024-01-25T01:55:06.505Z,16.25
2024-01-25T02:00:12.861Z,15.80
2024-01-25T02:05:15.175Z,14.50
2024-01-25T02:10:18.175Z,15.45
2024-01-25T02:15:21.353Z,12.43
2024-01-25T02:20:27.271Z,14.18
2024-01-25T02:25:29.666Z,14.85
2024-01-25T02:30:35.380Z,14.48
2024-01-25T02:35:39.371Z,13.10
2024-01-25T02:40:41.744Z,14.07
2024-01-25T02:45:44.027Z,14.00
2024-01-25T02:50:46.621Z,14.80
2024-01-25T02:55:49.027Z,17.83
2024-01-25T03:00:56.796Z,15.80
2024-01-25T03:05:59.141Z,10.10
2024-01-25T03:11:01.726Z,8.77
2024-01-25T03:16:04.177Z,9.23
2024-01-25T03:21:06.566Z,7.93
2024-01-25T03:26:08.710Z,7.25
2024-01-25T03:31:11.098Z,7.38
2024-01-25T03:36:16.884Z,6.85
2024-01-25T03:41:19.275Z,7.70
2024-01-25T03:46:21.631Z,6.22
2024-01-25T03:51:25.483Z,6.55
2024-01-25T03:56:28.335Z,6.93
2024-01-25T04:01:32.313Z,6.05
2024-01-25T04:06:34.880Z,6.60
2024-01-25T04:11:39.023Z,8.30
2024-01-25T04:16:42.219Z,8.95
2024-01-25T04:21:44.758Z,8.27
2024-01-25T04:26:47.269Z,9.52
2024-01-25T04:31:50.036Z,10.05
2024-01-25T04:36:52.539Z,17.48
2024-01-25T04:41:54.831Z,9.32
2024-01-25T04:46:57.992Z,10.20
2024-01-25T04:52:00.394Z,9.85
2024-01-25T04:57:03.994Z,10.85
2024-01-25T05:02:06.539Z,26.15
2024-01-25T05:07:09.049Z,25.20
2024-01-25T05:12:11.227Z,19.20
2024-01-25T05:17:14.561Z,14.75
2024-01-25T05:22:17.926Z,16.05
2024-01-25T05:27:20.948Z,16.77
2024-01-25T05:32:24.065Z,16.70
2024-01-25T05:37:26.282Z,15.93
2024-01-25T05:42:30.378Z,17.45
2024-01-25T05:47:34.385Z,20.15
2024-01-25T05:52:38.966Z,20.73
2024-01-25T05:57:41.385Z,19.60
2024-01-25T06:02:44.968Z,19.08
2024-01-25T06:07:47.508Z,19.35
2024-01-25T06:12:50.043Z,21.83
2024-01-25T06:17:52.854Z,24.20
2024-01-25T06:22:55.308Z,22.23
2024-01-25T06:27:58.678Z,24.25
2024-01-25T06:33:01.129Z,24.08
2024-01-25T06:38:03.451Z,23.48
2024-01-25T06:43:05.821Z,23.10
2024-01-25T06:48:10.296Z,21.95
2024-01-25T06:53:12.414Z,23.27
2024-01-25T06:58:14.698Z,22.67
2024-01-25T07:03:17.342Z,22.30
2024-01-25T07:08:19.907Z,25.70
2024-01-25T07:13:22.633Z,24.77
2024-01-25T07:18:26.226Z,24.52
2024-01-25T07:23:28.548Z,23.70
2024-01-25T07:28:30.941Z,24.25
2024-01-25T07:33:33.487Z,24.98
2024-01-25T07:38:35.666Z,25.67
2024-01-25T07:43:37.838Z,27.20
2024-01-25T07:48:40.421Z,29.42
2024-01-25T07:53:43.086Z,29.23
2024-01-25T07:58:45.304Z,29.95
2024-01-25T08:03:47.583Z,32.53
2024-01-25T08:08:50.179Z,28.02
2024-01-25T08:13:52.634Z,24.00
2024-01-25T08:18:55.385Z,22.13
2024-01-25T08:23:58.316Z,19.95
2024-01-25T08:29:00.568Z,19.17
2024-01-25T08:34:03.124Z,18.42
2024-01-25T08:39:06.655Z,18.33
2024-01-25T08:44:08.820Z,18.92
2024-01-25T08:49:13.700Z,17.38
2024-01-25T08:54:16.018Z,16.13
2024-01-25T08:59:18.209Z,15.98
2024-01-25T09:04:22.249Z,14.90
2024-01-25T09:09:26.023Z,17.15
2024-01-25T09:14:28.226Z,18.75
2024-01-25T09:19:30.662Z,15.32
2024-01-25T09:24:33.019Z,14.30
2024-01-25T09:29:35.315Z,16.98
2024-01-25T09:34:41.410Z,17.58
2024-01-25T09:39:44.379Z,16.77
2024-01-25T09:44:46.801Z,13.18
2024-01-25T09:49:49.526Z,11.63
2024-01-25T09:54:55.872Z,12.70
2024-01-25T09:59:58.438Z,11.38
2024-01-25T10:05:00.902Z,10.10
2024-01-25T10:10:03.208Z,6.88
2024-01-25T10:15:06.572Z,7.28
2024-01-25T10:20:12.528Z,6.78
2024-01-25T10:25:18.476Z,8.10
2024-01-25T10:30:21.725Z,6.03
2024-01-25T10:35:27.790Z,6.18
2024-01-25T10:40:30.850Z,5.97
2024-01-25T10:45:33.410Z,6.50
2024-01-25T10:50:36.193Z,7.07
2024-01-25T10:55:38.785Z,7.45
2024-01-25T11:00:41.394Z,7.07
2024-01-25T11:05:44.302Z,7.00
2024-01-25T11:10:52.330Z,6.55
2024-01-25T11:15:55.005Z,6.13
2024-01-25T11:21:02.057Z,5.57
2024-01-25T11:26:04.442Z,6.78
2024-01-25T11:31:06.849Z,6.57
2024-01-25T11:36:09.241Z,7.65
2024-01-25T11:41:11.668Z,6.70
2024-01-25T11:46:15.551Z,7.15
2024-01-25T11:51:17.796Z,5.65
2024-01-25T11:56:24.571Z,6.78
2024-01-25T12:01:27.700Z,6.82
2024-01-25T12:06:31.477Z,7.43
2024-01-25T12:11:33.720Z,8.02
2024-01-25T12:16:38.305Z,7.03
2024-01-25T12:21:45.588Z,8.52
2024-01-25T12:26:48.810Z,7.07
2024-01-25T12:31:51.022Z,6.30
2024-01-25T12:36:54.021Z,6.22
2024-01-25T12:41:56.511Z,5.90
2024-01-25T12:47:02.902Z,5.78
2024-01-25T12:52:05.738Z,6.32
2024-01-25T12:57:09.417Z,9.00
2024-01-25T13:02:13.683Z,7.55
2024-01-25T13:07:16.315Z,6.80
2024-01-25T13:12:18.570Z,7.00
2024-01-25T13:17:22.795Z,8.25
2024-01-25T13:22:25.951Z,8.68
2024-01-25T13:27:28.650Z,9.25
2024-01-25T13:32:30.970Z,11.13
2024-01-25T13:37:33.402Z,11.05
2024-01-25T13:42:35.715Z,14.07
2024-01-25T13:47:38.118Z,10.13
2024-01-25T13:52:40.375Z,10.02
2024-01-25T13:57:42.630Z,10.77
2024-01-25T14:02:46.627Z,9.80
2024-01-25T14:07:48.907Z,18.95
2024-01-25T14:12:52.707Z,14.80
2024-01-25T14:17:55.208Z,11.77
2024-01-25T14:22:57.614Z,8.57
2024-01-25T14:28:00.220Z,7.78
2024-01-25T14:33:05.125Z,7.60
2024-01-25T14:38:08.030Z,5.35
2024-01-25T14:43:10.226Z,7.95
2024-01-25T14:48:13.191Z,7.30
2024-01-25T14:53:15.621Z,9.25
2024-01-25T14:58:23.750Z,9.23
2024-01-25T15:03:29.192Z,11.75
2024-01-25T15:08:31.636Z,14.57
2024-01-25T15:13:34.136Z,14.73
2024-01-25T15:18:36.592Z,17.48
2024-01-25T15:23:38.901Z,19.88
2024-01-25T15:28:41.113Z,19.65
2024-01-25T15:33:43.530Z,17.27
2024-01-25T15:38:45.879Z,18.08
2024-01-25T15:43:48.069Z,24.70
2024-01-25T15:48:52.594Z,24.35
2024-01-25T15:53:54.868Z,24.08
2024-01-25T15:58:57.048Z,19.92
2024-01-25T16:03:59.325Z,16.88
2024-01-25T16:09:05.146Z,16.58
2024-01-25T16:14:07.382Z,15.57
2024-01-25T16:19:09.700Z,17.67
2024-01-25T16:24:12.002Z,17.67
2024-01-25T16:29:14.930Z,37.63
2024-01-25T16:34:17.357Z,28.80
2024-01-25T16:39:19.908Z,27.98
2024-01-25T16:44:22.470Z,25.83
2024-01-25T16:49:25.041Z,28.70
2024-01-25T16:54:27.497Z,38.97
2024-01-25T16:59:31.433Z,34.35
2024-01-25T17:04:33.711Z,37.53
2024-01-25T17:09:35.909Z,36.30
2024-01-25T17:14:38.611Z,42.20
2024-01-25T17:19:41.429Z,40.90
2024-01-25T17:24:43.862Z,38.17
2024-01-25T17:29:49.565Z,37.53
2024-01-25T17:35:17.896Z,37.88
2024-01-25T17:40:18.400Z,38.83
2024-01-25T17:45:20.912Z,40.72
2024-01-25T17:50:43.986Z,37.17
2024-01-25T17:55:49.363Z,37.08
2024-01-25T18:00:51.921Z,30.83
2024-01-25T18:05:55.487Z,27.42
2024-01-25T18:11:00.858Z,25.92
2024-01-25T18:16:13.139Z,32.22
2024-01-25T18:21:15.581Z,33.58
2024-01-25T18:26:18.030Z,28.80
2024-01-25T18:31:20.542Z,31.13
2024-01-25T18:36:22.846Z,25.20
2024-01-25T18:41:25.328Z,25.55
2024-01-25T18:46:27.728Z,24.40
2024-01-25T18:51:30.219Z,24.80
2024-01-25T18:56:32.767Z,32.63
2024-01-25T19:01:35.716Z,29.45
2024-01-25T19:06:39.226Z,29.65
2024-01-25T19:11:41.449Z,31.38
2024-01-25T19:16:45.495Z,33.88
2024-01-25T19:21:48.869Z,35.60
2024-01-25T19:26:51.113Z,36.20
2024-01-25T19:31:54.120Z,39.50
2024-01-25T19:36:56.407Z,47.47
2024-01-25T19:41:58.880Z,52.90
2024-01-25T19:47:01.097Z,55.20
2024-01-25T19:52:05.030Z,47.45
2024-01-25T19:57:07.736Z,47.20
2024-01-25T20:02:10.491Z,43.78
2024-01-25T20:07:13.144Z,40.05
2024-01-25T20:12:15.404Z,38.78
2024-01-25T20:17:19.576Z,49.80
2024-01-25T20:22:21.903Z,62.50
2024-01-25T20:27:24.161Z,49.58
2024-01-25T20:32:28.807Z,64.55
2024-01-25T20:37:31.186Z,56.13
2024-01-25T20:42:33.412Z,51.58
2024-01-25T20:47:35.677Z,41.75
2024-01-25T20:52:37.838Z,34.63
2024-01-25T20:57:39.988Z,22.33
2024-01-25T21:02:42.496Z,16.05
2024-01-25T21:07:45.133Z,17.33
2024-01-25T21:12:47.607Z,15.80
2024-01-25T21:17:49.961Z,28.67
2024-01-25T21:22:52.350Z,16.42
2024-01-25T21:27:55.438Z,22.83
2024-01-25T21:32:57.648Z,21.92
2024-01-25T21:38:00.091Z,19.33
2024-01-25T21:43:02.997Z,15.93
2024-01-25T21:48:10.840Z,13.40
2024-01-25T21:53:13.344Z,20.33
2024-01-25T21:58:15.723Z,22.60
2024-01-25T22:03:18.114Z,21.30
2024-01-25T22:08:20.974Z,20.77
2024-01-25T22:13:23.147Z,20.25
2024-01-25T22:18:25.399Z,23.65
2024-01-25T22:23:28.675Z,18.02
2024-01-25T22:28:30.911Z,16.60
2024-01-25T22:33:33.164Z,18.13
2024-01-25T22:38:35.520Z,18.23
2024-01-25T22:43:40.757Z,17.50
2024-01-25T22:48:43.042Z,17.85
2024-01-25T22:53:45.254Z,16.85
2024-01-25T22:58:48.751Z,18.17
2024-01-25T23:03:58.657Z,15.27
2024-01-25T23:09:01.236Z,14.85
2024-01-25T23:14:06.474Z,13.02
2024-01-25T23:19:22.858Z,5.57
2024-01-25T23:24:27.480Z,4.75
2024-01-25T23:29:30.163Z,5.05
2024-01-25T23:34:34.055Z,8.77
2024-01-25T23:39:36.783Z,9.38
2024-01-25T23:44:39.194Z,7.85
2024-01-25T23:49:45.359Z,7.97
2024-01-25T23:54:47.980Z,8.25
2024-01-25T23:59:50.471Z,7.18
